createdAt,value
2023-01-03T00:04:29.930Z,57.20
2023-01-03T00:09:31.869Z,57.04
2023-01-03T00:14:37.395Z,57.21
2023-01-03T00:19:44.255Z,57.02
2023-01-03T00:24:47.999Z,57.20
2023-01-03T00:29:50.085Z,57.12
2023-01-03T00:34:51.923Z,57.05
2023-01-03T00:39:53.895Z,57.26
2023-01-03T00:44:55.759Z,57.12
2023-01-03T00:49:57.555Z,57.00
2023-01-03T00:54:59.324Z,56.61
2023-01-03T01:00:01.138Z,56.66
2023-01-03T01:05:03.141Z,56.69
2023-01-03T01:10:05.360Z,56.82
2023-01-03T01:15:07.697Z,56.92
2023-01-03T01:20:09.854Z,56.87
2023-01-03T01:25:11.660Z,57.07
2023-01-03T01:30:13.748Z,57.00
2023-01-03T01:35:15.615Z,57.06
2023-01-03T01:40:19.103Z,56.54
2023-01-03T01:45:20.965Z,56.84
2023-01-03T01:50:33.268Z,56.79
2023-01-03T01:55:45.272Z,56.48
2023-01-03T02:00:47.182Z,56.49
2023-01-03T02:05:53.836Z,56.03
2023-01-03T02:11:14.367Z,55.55
2023-01-03T02:16:23.874Z,55.75
2023-01-03T02:21:49.750Z,55.34
2023-01-03T02:27:19.074Z,55.17
2023-01-03T02:32:45.179Z,54.89
2023-01-03T02:37:46.970Z,55.25
2023-01-03T02:43:07.808Z,55.21
2023-01-03T02:48:13.794Z,54.77
2023-01-03T02:53:26.010Z,54.76
2023-01-03T02:58:32.091Z,55.02
2023-01-03T03:03:38.310Z,54.48
2023-01-03T03:08:40.457Z,54.88
2023-01-03T03:13:53.072Z,54.43
2023-01-03T03:19:03.382Z,55.03
2023-01-03T03:24:48.151Z,54.82
2023-01-03T03:29:52.375Z,55.14
2023-01-03T03:34:58.062Z,55.13
2023-01-03T03:40:18.426Z,54.70
2023-01-03T03:45:26.909Z,54.48
2023-01-03T03:50:43.151Z,54.35
2023-01-03T03:55:48.824Z,54.02
2023-01-03T04:00:52.219Z,53.79
2023-01-03T04:06:02.363Z,53.66
2023-01-03T04:11:07.277Z,53.41
2023-01-03T04:16:09.239Z,53.81
2023-01-03T04:21:14.313Z,53.88
2023-01-03T04:26:20.779Z,53.36
2023-01-03T04:31:22.658Z,53.66
2023-01-03T04:36:24.620Z,53.39
2023-01-03T04:41:26.546Z,53.21
2023-01-03T04:46:33.321Z,53.45
2023-01-03T04:51:36.223Z,53.30
2023-01-03T04:56:38.530Z,53.20
2023-01-03T05:01:52.275Z,53.42
2023-01-03T05:06:55.704Z,53.19
2023-01-03T05:11:57.557Z,53.41
2023-01-03T05:16:59.598Z,52.92
2023-01-03T05:22:21.807Z,52.93
2023-01-03T05:27:24.175Z,52.99
2023-01-03T05:32:27.803Z,52.55
2023-01-03T05:37:29.609Z,52.42
2023-01-03T05:42:31.434Z,52.11
2023-01-03T05:47:33.712Z,52.33
2023-01-03T05:52:35.548Z,52.66
2023-01-03T05:57:37.827Z,53.09
2023-01-03T06:02:39.881Z,52.92
2023-01-03T06:07:41.828Z,53.13
2023-01-03T06:12:43.716Z,52.73
2023-01-03T06:18:02.744Z,53.21
2023-01-03T06:23:04.680Z,53.36
2023-01-03T06:28:06.537Z,53.45
2023-01-03T06:33:08.497Z,53.53
2023-01-03T06:38:10.344Z,53.42
2023-01-03T06:43:12.142Z,53.06
2023-01-03T06:48:32.989Z,52.99
2023-01-03T06:53:39.653Z,53.13
2023-01-03T06:58:41.469Z,53.39
2023-01-03T07:03:44.083Z,52.93
2023-01-03T07:08:48.481Z,52.74
2023-01-03T07:14:00.041Z,52.87
2023-01-03T07:19:02.954Z,52.81
2023-01-03T07:24:06.836Z,52.87
2023-01-03T07:29:10.912Z,53.04
2023-01-03T07:34:12.784Z,53.15
2023-01-03T07:39:14.712Z,53.23
2023-01-03T07:44:16.609Z,53.57
2023-01-03T07:49:18.460Z,52.89
2023-01-03T07:54:20.277Z,53.52
2023-01-03T07:59:22.229Z,52.99
2023-01-03T08:04:24.176Z,53.29
2023-01-03T08:09:45.007Z,53.17
2023-01-03T08:14:46.874Z,53.45
2023-01-03T08:19:48.690Z,52.71
2023-01-03T08:24:50.509Z,52.99
2023-01-03T08:29:52.379Z,52.16
2023-01-03T08:34:54.819Z,52.48
2023-01-03T08:40:02.160Z,52.08
2023-01-03T08:45:08.867Z,51.22
2023-01-03T08:50:11.945Z,50.77
2023-01-03T08:55:13.846Z,50.91
2023-01-03T09:00:15.925Z,50.33
2023-01-03T09:05:17.925Z,49.98
2023-01-03T09:10:19.925Z,49.93
2023-01-03T09:15:21.841Z,49.51
2023-01-03T09:20:23.799Z,48.69
2023-01-03T09:25:25.635Z,48.46
2023-01-03T09:30:27.476Z,48.72
2023-01-03T09:35:29.357Z,48.25
2023-01-03T09:40:32.992Z,47.94
2023-01-03T09:45:35.420Z,47.52
2023-01-03T09:51:14.147Z,47.34
2023-01-03T09:56:19.585Z,46.57
2023-01-03T10:01:52.128Z,46.43
2023-01-03T10:07:15.733Z,46.57
2023-01-03T10:12:35.681Z,46.38
2023-01-03T10:17:51.966Z,45.66
2023-01-03T10:22:56.250Z,46.06
2023-01-03T10:28:17.546Z,45.60
2023-01-03T10:33:33.167Z,45.70
2023-01-03T10:38:43.548Z,45.38
2023-01-03T10:44:02.970Z,45.17
2023-01-03T10:49:28.321Z,44.71
2023-01-03T10:54:54.835Z,44.69
2023-01-03T10:59:56.695Z,44.27
2023-01-03T11:05:17.315Z,44.36
2023-01-03T11:10:19.284Z,44.79
2023-01-03T11:15:25.598Z,44.10
2023-01-03T11:20:43.887Z,44.27
2023-01-03T11:26:00.449Z,44.49
2023-01-03T11:31:20.253Z,44.53
2023-01-03T11:36:51.141Z,44.51
2023-01-03T11:42:10.936Z,44.94
2023-01-03T11:47:38.293Z,44.83
2023-01-03T11:53:02.586Z,44.66
2023-01-03T11:58:43.109Z,44.58
2023-01-03T12:04:08.395Z,44.93
2023-01-03T12:09:19.321Z,44.88
2023-01-03T12:14:46.560Z,44.73
2023-01-03T12:20:00.768Z,44.60
2023-01-03T12:25:42.359Z,44.69
2023-01-03T12:31:02.738Z,44.78
2023-01-03T12:36:10.392Z,44.94
2023-01-03T12:41:31.598Z,44.47
2023-01-03T12:46:38.481Z,44.97
2023-01-03T12:51:40.530Z,44.69
2023-01-03T12:57:11.269Z,44.72
2023-01-03T13:02:21.194Z,43.00
2023-01-03T13:07:28.385Z,39.76
2023-01-03T13:12:35.121Z,41.14
2023-01-03T13:17:46.115Z,42.51
2023-01-03T13:22:53.646Z,43.42
2023-01-03T13:28:01.114Z,43.66
2023-01-03T13:33:11.920Z,41.65
2023-01-03T13:38:35.954Z,41.50
2023-01-03T13:43:40.211Z,42.32
2023-01-03T13:48:53.933Z,42.97
2023-01-03T13:54:04.532Z,43.81
2023-01-03T13:59:15.505Z,44.35
2023-01-03T14:04:51.265Z,44.65
2023-01-03T14:10:01.612Z,44.91
2023-01-03T14:15:25.273Z,45.00
2023-01-03T14:20:32.463Z,44.84
2023-01-03T14:25:40.278Z,45.27
2023-01-03T14:30:43.492Z,45.29
2023-01-03T14:35:45.801Z,45.71
2023-01-03T14:40:48.489Z,45.70
2023-01-03T14:45:54.727Z,45.57
2023-01-03T14:51:00.248Z,46.07
2023-01-03T14:56:03.238Z,46.75
2023-01-03T15:01:08.072Z,46.52
2023-01-03T15:06:31.218Z,46.58
2023-01-03T15:11:57.410Z,46.52
2023-01-03T15:17:13.477Z,46.54
2023-01-03T15:22:20.660Z,46.15
2023-01-03T15:27:38.926Z,47.01
2023-01-03T15:32:52.513Z,47.12
2023-01-03T15:37:54.841Z,47.41
2023-01-03T15:43:19.645Z,47.31
2023-01-03T15:48:22.295Z,47.31
2023-01-03T15:53:41.243Z,47.77
2023-01-03T15:58:52.035Z,47.49
2023-01-03T16:03:54.183Z,47.96
2023-01-03T16:08:56.167Z,48.07
2023-01-03T16:14:01.047Z,47.22
2023-01-03T16:19:05.408Z,47.37
2023-01-03T16:24:07.336Z,47.50
2023-01-03T16:29:09.206Z,47.30
2023-01-03T16:34:19.872Z,47.66
2023-01-03T16:39:26.701Z,47.26
2023-01-03T16:44:28.499Z,47.89
2023-01-03T16:49:34.497Z,47.29
2023-01-03T16:54:36.473Z,47.61
2023-01-03T16:59:38.380Z,47.57
2023-01-03T17:04:40.953Z,47.61
2023-01-03T17:09:42.800Z,47.96
2023-01-03T17:14:44.695Z,47.90
2023-01-03T17:20:04.784Z,48.28
2023-01-03T17:25:11.375Z,48.48
2023-01-03T17:30:18.940Z,48.91
2023-01-03T17:35:20.987Z,49.13
2023-01-03T17:40:33.184Z,48.89
2023-01-03T17:45:54.542Z,48.71
2023-01-03T17:50:57.161Z,49.24
2023-01-03T17:55:59.272Z,49.20
2023-01-03T18:01:01.482Z,48.99
2023-01-03T18:06:15.040Z,49.39
2023-01-03T18:11:19.598Z,48.89
2023-01-03T18:16:22.975Z,48.55
2023-01-03T18:21:28.164Z,48.69
2023-01-03T18:26:34.933Z,49.08
2023-01-03T18:31:37.222Z,49.09
2023-01-03T18:36:45.483Z,49.56
2023-01-03T18:41:47.701Z,49.29
2023-01-03T18:46:51.561Z,48.74
2023-01-03T18:51:54.220Z,49.18
2023-01-03T18:56:56.719Z,49.30
2023-01-03T19:01:59.620Z,49.02
2023-01-03T19:07:02.025Z,49.30
2023-01-03T19:12:04.160Z,49.33
2023-01-03T19:17:12.134Z,49.60
2023-01-03T19:22:27.158Z,49.57
2023-01-03T19:27:40.664Z,48.87
2023-01-03T19:32:45.401Z,49.10
2023-01-03T19:37:47.764Z,48.47
2023-01-03T19:42:52.109Z,48.67
2023-01-03T19:47:58.761Z,49.33
2023-01-03T19:53:04.578Z,49.69
2023-01-03T19:58:20.279Z,50.64
2023-01-03T20:03:25.467Z,50.37
2023-01-03T20:08:28.682Z,50.58
2023-01-03T20:13:32.427Z,50.64
2023-01-03T20:18:36.988Z,50.88
2023-01-03T20:23:46.804Z,50.56
2023-01-03T20:28:49.087Z,50.51
2023-01-03T20:33:52.290Z,50.65
2023-01-03T20:38:58.330Z,50.06
2023-01-03T20:44:00.187Z,50.50
2023-01-03T20:49:03.638Z,49.99
2023-01-03T20:54:05.602Z,49.85
2023-01-03T20:59:07.728Z,50.12
2023-01-03T21:04:12.055Z,50.38
2023-01-03T21:09:14.410Z,49.65
2023-01-03T21:14:16.273Z,50.16
2023-01-03T21:19:23.779Z,50.19
2023-01-03T21:24:25.756Z,49.86
2023-01-03T21:29:27.939Z,49.89
2023-01-03T21:34:30.726Z,49.49
2023-01-03T21:39:32.623Z,49.05
2023-01-03T21:44:34.522Z,49.38
2023-01-03T21:49:36.337Z,48.57
2023-01-03T21:54:38.164Z,48.98
2023-01-03T21:59:40.061Z,48.82
2023-01-03T22:04:41.933Z,48.95
2023-01-03T22:10:02.259Z,49.07
2023-01-03T22:15:04.644Z,48.63
2023-01-03T22:20:08.964Z,48.63
2023-01-03T22:25:13.172Z,48.80
2023-01-03T22:30:19.934Z,48.89
2023-01-03T22:35:21.794Z,48.19
2023-01-03T22:40:23.605Z,48.19
2023-01-03T22:45:25.524Z,48.18
2023-01-03T22:50:27.418Z,48.13
2023-01-03T22:55:32.220Z,48.27
2023-01-03T23:00:34.358Z,48.56
2023-01-03T23:05:36.202Z,48.17
2023-01-03T23:10:38.030Z,48.17
2023-01-03T23:15:39.849Z,48.29
2023-01-03T23:20:48.827Z,49.16
2023-01-03T23:25:50.717Z,49.14
2023-01-03T23:30:52.561Z,48.94
2023-01-03T23:35:54.432Z,48.30
2023-01-03T23:40:56.257Z,49.20
2023-01-03T23:45:58.744Z,48.97
2023-01-03T23:51:07.899Z,49.08
2023-01-03T23:56:13.435Z,48.87
